sensor_id;sensor_type;location;lat;lon;timestamp;pressure;altitude;pressure_sealevel;temperature;humidity
33155;BME280;19511;42.682;23.332;2023-02-10T00:03:37;96968.47;;;-5.84;100.00
33155;BME280;19511;42.682;23.332;2023-02-10T00:06:04;96967.41;;;-5.83;100.00
33155;BME280;19511;42.682;23.332;2023-02-10T00:08:30;96955.59;;;-5.77;100.00
33155;BME280;19511;42.682;23.332;2023-02-10T00:11:00;96964.19;;;-5.80;100.00
33155;BME280;19511;42.682;23.332;2023-02-10T00:13:27;96945.88;;;-5.78;100.00
33155;BME280;19511;42.682;23.332;2023-02-10T00:15:53;96951.00;;;-5.77;100.00
33155;BME280;19511;42.682;23.332;2023-02-10T00:18:19;96965.34;;;-5.71;100.00
33155;BME280;19511;42.682;23.332;2023-02-10T00:20:48;96949.59;;;-5.84;100.00
33155;BME280;19511;42.682;23.332;2023-02-10T00:23:19;96962.34;;;-5.75;100.00
33155;BME280;19511;42.682;23.332;2023-02-10T00:25:44;96962.97;;;-5.62;100.00
33155;BME280;19511;42.682;23.332;2023-02-10T00:28:09;96943.59;;;-5.97;100.00
33155;BME280;19511;42.682;23.332;2023-02-10T00:30:36;96932.56;;;-6.00;100.00
33155;BME280;19511;42.682;23.332;2023-02-10T00:33:02;96915.50;;;-6.16;100.00
33155;BME280;19511;42.682;23.332;2023-02-10T00:35:27;96845.19;;;-6.58;100.00
33155;BME280;19511;42.682;23.332;2023-02-10T00:37:52;96915.78;;;-6.13;100.00
33155;BME280;19511;42.682;23.332;2023-02-10T00:40:18;96881.75;;;-6.29;100.00
33155;BME280;19511;42.682;23.332;2023-02-10T00:42:43;96945.78;;;-5.99;100.00
33155;BME280;19511;42.682;23.332;2023-02-10T00:45:09;96955.78;;;-5.89;100.00
33155;BME280;19511;42.682;23.332;2023-02-10T00:47:35;96914.47;;;-6.05;100.00
33155;BME280;19511;42.682;23.332;2023-02-10T00:50:00;96928.53;;;-5.98;100.00
33155;BME280;19511;42.682;23.332;2023-02-10T00:52:26;96820.91;;;-6.63;100.00
33155;BME280;19511;42.682;23.332;2023-02-10T00:54:51;96925.59;;;-5.91;100.00
33155;BME280;19511;42.682;23.332;2023-02-10T00:57:17;96925.81;;;-6.03;100.00
33155;BME280;19511;42.682;23.332;2023-02-10T00:59:42;96808.19;;;-6.78;100.00
33155;BME280;19511;42.682;23.332;2023-02-10T01:02:08;96929.28;;;-6.08;100.00
33155;BME280;19511;42.682;23.332;2023-02-10T01:04:34;96701.34;;;-7.52;100.00
33155;BME280;19511;42.682;23.332;2023-02-10T01:07:00;96927.44;;;-6.02;100.00
33155;BME280;19511;42.682;23.332;2023-02-10T01:09:25;96927.97;;;-6.05;100.00
33155;BME280;19511;42.682;23.332;2023-02-10T01:11:51;96928.75;;;-6.04;100.00
33155;BME280;19511;42.682;23.332;2023-02-10T01:14:22;96930.09;;;-6.07;100.00
33155;BME280;19511;42.682;23.332;2023-02-10T01:16:48;96916.25;;;-6.21;100.00
33155;BME280;19511;42.682;23.332;2023-02-10T01:19:18;96932.91;;;-6.29;100.00
33155;BME280;19511;42.682;23.332;2023-02-10T01:21:43;96914.28;;;-6.36;100.00
33155;BME280;19511;42.682;23.332;2023-02-10T01:24:09;96789.81;;;-7.18;100.00
33155;BME280;19511;42.682;23.332;2023-02-10T01:26:34;96914.34;;;-6.26;100.00
33155;BME280;19511;42.682;23.332;2023-02-10T01:29:00;96900.28;;;-6.33;100.00
33155;BME280;19511;42.682;23.332;2023-02-10T01:31:26;96912.47;;;-6.25;100.00
33155;BME280;19511;42.682;23.332;2023-02-10T01:33:53;96906.09;;;-6.46;100.00
33155;BME280;19511;42.682;23.332;2023-02-10T01:36:22;96887.22;;;-6.51;100.00
33155;BME280;19511;42.682;23.332;2023-02-10T01:38:48;96912.22;;;-6.18;100.00
33155;BME280;19511;42.682;23.332;2023-02-10T01:41:17;96907.31;;;-6.32;100.00
33155;BME280;19511;42.682;23.332;2023-02-10T01:46:31;96877.19;;;-6.94;100.00
33155;BME280;19511;42.682;23.332;2023-02-10T01:48:58;96903.34;;;-6.89;100.00
33155;BME280;19511;42.682;23.332;2023-02-10T01:51:36;96869.47;;;-7.12;100.00
33155;BME280;19511;42.682;23.332;2023-02-10T01:54:03;96902.09;;;-7.03;100.00
33155;BME280;19511;42.682;23.332;2023-02-10T01:56:29;96891.28;;;-7.09;100.00
33155;BME280;19511;42.682;23.332;2023-02-10T01:58:55;96874.19;;;-7.25;100.00
33155;BME280;19511;42.682;23.332;2023-02-10T02:01:21;96885.06;;;-7.14;100.00
33155;BME280;19511;42.682;23.332;2023-02-10T02:03:47;96772.84;;;-7.79;100.00
33155;BME280;19511;42.682;23.332;2023-02-10T02:06:13;96880.88;;;-7.00;100.00
33155;BME280;19511;42.682;23.332;2023-02-10T02:08:38;96886.84;;;-6.98;100.00
33155;BME280;19511;42.682;23.332;2023-02-10T02:16:57;96874.19;;;-6.97;100.00
33155;BME280;19511;42.682;23.332;2023-02-10T02:20:08;96877.13;;;-6.99;100.00
33155;BME280;19511;42.682;23.332;2023-02-10T02:31:43;96865.09;;;-6.59;100.00
33155;BME280;19511;42.682;23.332;2023-02-10T02:34:33;96845.47;;;-6.92;100.00
33155;BME280;19511;42.682;23.332;2023-02-10T02:39:33;96841.00;;;-7.08;100.00
33155;BME280;19511;42.682;23.332;2023-02-10T02:44:39;96864.34;;;-6.86;100.00
33155;BME280;19511;42.682;23.332;2023-02-10T02:47:17;96831.75;;;-6.90;100.00
33155;BME280;19511;42.682;23.332;2023-02-10T02:52:31;96855.69;;;-6.89;100.00
33155;BME280;19511;42.682;23.332;2023-02-10T02:55:10;96842.13;;;-7.04;100.00
33155;BME280;19511;42.682;23.332;2023-02-10T02:57:57;96858.31;;;-6.99;100.00
33155;BME280;19511;42.682;23.332;2023-02-10T03:00:29;96863.84;;;-7.11;100.00
33155;BME280;19511;42.682;23.332;2023-02-10T03:03:02;96867.25;;;-7.20;100.00
33155;BME280;19511;42.682;23.332;2023-02-10T03:05:29;96859.13;;;-7.26;100.00
33155;BME280;19511;42.682;23.332;2023-02-10T03:07:56;96853.75;;;-7.26;100.00
33155;BME280;19511;42.682;23.332;2023-02-10T03:10:21;96713.97;;;-8.08;100.00
33155;BME280;19511;42.682;23.332;2023-02-10T03:12:47;96733.75;;;-7.92;100.00
33155;BME280;19511;42.682;23.332;2023-02-10T03:15:13;96864.97;;;-7.07;100.00
33155;BME280;19511;42.682;23.332;2023-02-10T03:17:40;96857.16;;;-7.08;100.00
33155;BME280;19511;42.682;23.332;2023-02-10T03:20:06;96760.78;;;-7.76;100.00
33155;BME280;19511;42.682;23.332;2023-02-10T03:22:32;96858.59;;;-7.23;100.00
33155;BME280;19511;42.682;23.332;2023-02-10T03:24:57;96751.75;;;-7.92;100.00
33155;BME280;19511;42.682;23.332;2023-02-10T03:27:23;96860.81;;;-7.19;100.00
33155;BME280;19511;42.682;23.332;2023-02-10T03:29:48;96862.06;;;-7.27;100.00
33155;BME280;19511;42.682;23.332;2023-02-10T03:32:15;96857.44;;;-7.59;100.00
33155;BME280;19511;42.682;23.332;2023-02-10T03:34:41;96857.28;;;-7.47;100.00
33155;BME280;19511;42.682;23.332;2023-02-10T03:37:07;96874.44;;;-7.53;100.00
33155;BME280;19511;42.682;23.332;2023-02-10T03:39:36;96841.38;;;-7.76;100.00
33155;BME280;19511;42.682;23.332;2023-02-10T03:42:01;96853.81;;;-7.70;100.00
33155;BME280;19511;42.682;23.332;2023-02-10T03:44:27;96840.25;;;-7.80;100.00
33155;BME280;19511;42.682;23.332;2023-02-10T03:46:52;96852.59;;;-7.57;100.00
33155;BME280;19511;42.682;23.332;2023-02-10T03:49:17;96799.28;;;-7.93;100.00
33155;BME280;19511;42.682;23.332;2023-02-10T03:51:43;96844.75;;;-7.64;100.00
33155;BME280;19511;42.682;23.332;2023-02-10T03:54:08;96825.19;;;-7.81;100.00
33155;BME280;19511;42.682;23.332;2023-02-10T03:56:34;96845.59;;;-7.58;100.00
33155;BME280;19511;42.682;23.332;2023-02-10T03:59:00;96848.59;;;-7.55;100.00
33155;BME280;19511;42.682;23.332;2023-02-10T04:01:26;96839.91;;;-7.40;100.00
33155;BME280;19511;42.682;23.332;2023-02-10T04:03:51;96709.94;;;-8.32;100.00
33155;BME280;19511;42.682;23.332;2023-02-10T04:06:17;96845.28;;;-7.62;100.00
33155;BME280;19511;42.682;23.332;2023-02-10T04:08:42;96831.75;;;-7.72;100.00
33155;BME280;19511;42.682;23.332;2023-02-10T04:11:08;96731.81;;;-8.46;100.00
33155;BME280;19511;42.682;23.332;2023-02-10T04:13:35;96840.19;;;-7.85;100.00
33155;BME280;19511;42.682;23.332;2023-02-10T04:16:05;96838.75;;;-7.71;100.00
33155;BME280;19511;42.682;23.332;2023-02-10T04:18:31;96848.84;;;-7.78;100.00
33155;BME280;19511;42.682;23.332;2023-02-10T04:20:58;96839.00;;;-7.95;100.00
33155;BME280;19511;42.682;23.332;2023-02-10T04:23:26;96731.22;;;-8.70;100.00
33155;BME280;19511;42.682;23.332;2023-02-10T04:25:52;96818.38;;;-8.11;100.00
33155;BME280;19511;42.682;23.332;2023-02-10T04:28:18;96782.47;;;-8.27;100.00
33155;BME280;19511;42.682;23.332;2023-02-10T04:30:43;96842.13;;;-8.03;100.00
33155;BME280;19511;42.682;23.332;2023-02-10T04:33:10;96844.44;;;-8.12;100.00
33155;BME280;19511;42.682;23.332;2023-02-10T04:35:35;96841.69;;;-8.17;100.00
33155;BME280;19511;42.682;23.332;2023-02-10T04:38:04;96845.81;;;-8.09;100.00
33155;BME280;19511;42.682;23.332;2023-02-10T04:40:30;96722.25;;;-8.81;100.00
33155;BME280;19511;42.682;23.332;2023-02-10T04:42:55;96844.31;;;-8.00;100.00
33155;BME280;19511;42.682;23.332;2023-02-10T04:45:21;96847.13;;;-7.90;100.00
33155;BME280;19511;42.682;23.332;2023-02-10T04:47:46;96851.69;;;-7.90;100.00
33155;BME280;19511;42.682;23.332;2023-02-10T04:50:13;96829.56;;;-8.20;100.00
33155;BME280;19511;42.682;23.332;2023-02-10T04:52:38;96847.56;;;-8.20;100.00
33155;BME280;19511;42.682;23.332;2023-02-10T04:55:04;96851.44;;;-8.28;100.00
33155;BME280;19511;42.682;23.332;2023-02-10T04:57:29;96852.28;;;-8.27;100.00
33155;BME280;19511;42.682;23.332;2023-02-10T04:59:55;96846.72;;;-8.21;100.00
33155;BME280;19511;42.682;23.332;2023-02-10T05:02:20;96846.53;;;-8.14;100.00
33155;BME280;19511;42.682;23.332;2023-02-10T05:04:48;96840.72;;;-8.28;100.00
33155;BME280;19511;42.682;23.332;2023-02-10T05:07:17;96866.09;;;-8.18;100.00
33155;BME280;19511;42.682;23.332;2023-02-10T05:09:42;96735.53;;;-9.08;100.00
33155;BME280;19511;42.682;23.332;2023-02-10T05:12:08;96861.06;;;-8.32;100.00
33155;BME280;19511;42.682;23.332;2023-02-10T05:14:33;96750.56;;;-9.07;100.00
33155;BME280;19511;42.682;23.332;2023-02-10T05:16:59;96867.56;;;-8.28;100.00
33155;BME280;19511;42.682;23.332;2023-02-10T05:19:29;96870.09;;;-8.38;100.00
33155;BME280;19511;42.682;23.332;2023-02-10T05:22:00;96774.50;;;-9.00;100.00
33155;BME280;19511;42.682;23.332;2023-02-10T05:24:26;96888.41;;;-8.35;100.00
33155;BME280;19511;42.682;23.332;2023-02-10T05:26:51;96787.13;;;-9.01;100.00
33155;BME280;19511;42.682;23.332;2023-02-10T05:29:17;96865.66;;;-8.49;100.00
33155;BME280;19511;42.682;23.332;2023-02-10T05:31:42;96901.50;;;-8.39;100.00
33155;BME280;19511;42.682;23.332;2023-02-10T05:34:08;96856.75;;;-8.72;100.00
33155;BME280;19511;42.682;23.332;2023-02-10T05:36:36;96903.47;;;-8.34;100.00
33155;BME280;19511;42.682;23.332;2023-02-10T05:39:02;96893.63;;;-8.45;100.00
33155;BME280;19511;42.682;23.332;2023-02-10T05:41:46;96916.13;;;-8.29;100.00
33155;BME280;19511;42.682;23.332;2023-02-10T05:44:11;96915.81;;;-8.33;100.00
33155;BME280;19511;42.682;23.332;2023-02-10T05:46:40;96900.38;;;-8.43;100.00
33155;BME280;19511;42.682;23.332;2023-02-10T05:49:06;96920.28;;;-8.39;100.00
33155;BME280;19511;42.682;23.332;2023-02-10T05:51:31;96909.97;;;-8.30;100.00
33155;BME280;19511;42.682;23.332;2023-02-10T05:53:57;96892.47;;;-8.32;100.00
33155;BME280;19511;42.682;23.332;2023-02-10T05:56:22;96919.34;;;-8.10;100.00
33155;BME280;19511;42.682;23.332;2023-02-10T05:58:48;96904.47;;;-8.18;100.00
33155;BME280;19511;42.682;23.332;2023-02-10T06:01:13;96692.91;;;-9.61;100.00
33155;BME280;19511;42.682;23.332;2023-02-10T06:03:39;96801.00;;;-9.04;100.00
33155;BME280;19511;42.682;23.332;2023-02-10T06:06:05;96924.09;;;-8.17;100.00
33155;BME280;19511;42.682;23.332;2023-02-10T06:08:30;96932.84;;;-8.05;100.00
33155;BME280;19511;42.682;23.332;2023-02-10T06:10:56;96933.50;;;-7.98;100.00
33155;BME280;19511;42.682;23.332;2023-02-10T06:13:25;96941.06;;;-7.95;100.00
33155;BME280;19511;42.682;23.332;2023-02-10T06:15:51;96919.81;;;-7.79;100.00
33155;BME280;19511;42.682;23.332;2023-02-10T06:18:20;96922.28;;;-7.73;100.00
33155;BME280;19511;42.682;23.332;2023-02-10T06:20:46;96915.88;;;-7.72;100.00
33155;BME280;19511;42.682;23.332;2023-02-10T06:23:12;96931.53;;;-7.85;100.00
33155;BME280;19511;42.682;23.332;2023-02-10T06:25:38;96923.34;;;-7.96;100.00
33155;BME280;19511;42.682;23.332;2023-02-10T06:28:03;96922.56;;;-7.74;100.00
33155;BME280;19511;42.682;23.332;2023-02-10T06:30:29;96955.69;;;-7.46;100.00
33155;BME280;19511;42.682;23.332;2023-02-10T06:32:55;96945.47;;;-7.44;100.00
33155;BME280;19511;42.682;23.332;2023-02-10T06:35:20;96935.50;;;-7.49;100.00
33155;BME280;19511;42.682;23.332;2023-02-10T06:37:50;96955.88;;;-7.31;100.00
33155;BME280;19511;42.682;23.332;2023-02-10T06:40:15;96953.25;;;-7.26;100.00
33155;BME280;19511;42.682;23.332;2023-02-10T06:42:45;96954.34;;;-7.22;100.00
33155;BME280;19511;42.682;23.332;2023-02-10T06:45:11;96933.03;;;-7.28;100.00
33155;BME280;19511;42.682;23.332;2023-02-10T06:47:36;96957.72;;;-7.09;100.00
33155;BME280;19511;42.682;23.332;2023-02-10T06:50:03;96955.66;;;-7.02;100.00
33155;BME280;19511;42.682;23.332;2023-02-10T06:52:28;96937.22;;;-7.15;100.00
33155;BME280;19511;42.682;23.332;2023-02-10T06:54:58;96943.75;;;-7.06;100.00
33155;BME280;19511;42.682;23.332;2023-02-10T06:57:23;96952.09;;;-7.08;100.00
33155;BME280;19511;42.682;23.332;2023-02-10T06:59:49;96968.50;;;-7.09;100.00
33155;BME280;19511;42.682;23.332;2023-02-10T07:02:18;96942.09;;;-7.12;100.00
33155;BME280;19511;42.682;23.332;2023-02-10T07:04:43;96844.19;;;-7.66;100.00
33155;BME280;19511;42.682;23.332;2023-02-10T07:07:09;96968.66;;;-6.94;100.00
33155;BME280;19511;42.682;23.332;2023-02-10T07:09:34;96933.97;;;-7.17;100.00
33155;BME280;19511;42.682;23.332;2023-02-10T07:12:04;96961.69;;;-6.90;100.00
33155;BME280;19511;42.682;23.332;2023-02-10T07:14:31;96940.78;;;-6.82;100.00
33155;BME280;19511;42.682;23.332;2023-02-10T07:17:05;96946.31;;;-6.67;100.00
33155;BME280;19511;42.682;23.332;2023-02-10T07:19:34;96953.91;;;-6.64;100.00
33155;BME280;19511;42.682;23.332;2023-02-10T07:21:59;96954.09;;;-6.38;100.00
33155;BME280;19511;42.682;23.332;2023-02-10T07:24:26;96848.72;;;-6.84;100.00
33155;BME280;19511;42.682;23.332;2023-02-10T07:26:52;96957.06;;;-6.02;100.00
33155;BME280;19511;42.682;23.332;2023-02-10T07:29:25;96936.59;;;-6.03;100.00
33155;BME280;19511;42.682;23.332;2023-02-10T07:31:51;96940.91;;;-6.02;100.00
33155;BME280;19511;42.682;23.332;2023-02-10T07:34:16;96934.91;;;-6.14;100.00
33155;BME280;19511;42.682;23.332;2023-02-10T07:36:49;96945.06;;;-5.84;100.00
33155;BME280;19511;42.682;23.332;2023-02-10T07:39:28;96954.03;;;-5.68;100.00
33155;BME280;19511;42.682;23.332;2023-02-10T07:41:54;96835.00;;;-6.50;100.00
33155;BME280;19511;42.682;23.332;2023-02-10T07:44:19;96945.59;;;-5.82;100.00
33155;BME280;19511;42.682;23.332;2023-02-10T07:46:48;96942.13;;;-5.72;100.00
33155;BME280;19511;42.682;23.332;2023-02-10T07:49:13;96951.38;;;-5.58;100.00
33155;BME280;19511;42.682;23.332;2023-02-10T07:51:42;96930.38;;;-5.55;100.00
33155;BME280;19511;42.682;23.332;2023-02-10T07:54:11;96925.00;;;-5.50;100.00
33155;BME280;19511;42.682;23.332;2023-02-10T07:56:37;96920.41;;;-5.50;100.00
33155;BME280;19511;42.682;23.332;2023-02-10T07:59:06;96949.09;;;-5.28;100.00
33155;BME280;19511;42.682;23.332;2023-02-10T08:01:32;96913.38;;;-5.56;100.00
33155;BME280;19511;42.682;23.332;2023-02-10T08:03:58;96957.41;;;-5.35;100.00
33155;BME280;19511;42.682;23.332;2023-02-10T08:06:25;96948.78;;;-5.37;100.00
33155;BME280;19511;42.682;23.332;2023-02-10T08:08:51;96936.38;;;-5.38;100.00
33155;BME280;19511;42.682;23.332;2023-02-10T08:11:17;96936.13;;;-5.31;100.00
33155;BME280;19511;42.682;23.332;2023-02-10T08:13:43;96933.16;;;-5.35;100.00
33155;BME280;19511;42.682;23.332;2023-02-10T08:16:11;96941.59;;;-5.05;100.00
33155;BME280;19511;42.682;23.332;2023-02-10T08:18:40;96937.66;;;-4.77;100.00
33155;BME280;19511;42.682;23.332;2023-02-10T08:21:07;96934.16;;;-4.57;100.00
33155;BME280;19511;42.682;23.332;2023-02-10T08:23:37;96914.44;;;-4.68;100.00
33155;BME280;19511;42.682;23.332;2023-02-10T08:26:05;96941.22;;;-4.40;100.00
33155;BME280;19511;42.682;23.332;2023-02-10T08:28:35;96806.94;;;-5.17;100.00
33155;BME280;19511;42.682;23.332;2023-02-10T08:31:07;96924.72;;;-4.39;100.00
33155;BME280;19511;42.682;23.332;2023-02-10T08:33:34;96945.53;;;-4.19;100.00
33155;BME280;19511;42.682;23.332;2023-02-10T08:36:07;96891.75;;;-4.36;100.00
33155;BME280;19511;42.682;23.332;2023-02-10T08:38:39;96929.84;;;-4.12;100.00
33155;BME280;19511;42.682;23.332;2023-02-10T08:41:08;96921.47;;;-4.00;100.00
33155;BME280;19511;42.682;23.332;2023-02-10T08:43:34;96918.50;;;-4.08;100.00
33155;BME280;19511;42.682;23.332;2023-02-10T08:46:00;96934.94;;;-3.79;100.00
33155;BME280;19511;42.682;23.332;2023-02-10T08:48:37;96914.66;;;-3.82;100.00
33155;BME280;19511;42.682;23.332;2023-02-10T08:51:17;96915.97;;;-3.69;100.00
33155;BME280;19511;42.682;23.332;2023-02-10T08:53:47;96930.25;;;-3.42;100.00
33155;BME280;19511;42.682;23.332;2023-02-10T08:56:17;96927.31;;;-3.51;100.00
33155;BME280;19511;42.682;23.332;2023-02-10T08:58:45;96818.16;;;-3.91;100.00
33155;BME280;19511;42.682;23.332;2023-02-10T09:01:15;96918.78;;;-3.14;100.00
33155;BME280;19511;42.682;23.332;2023-02-10T09:03:41;96921.72;;;-3.10;100.00
33155;BME280;19511;42.682;23.332;2023-02-10T09:06:28;96913.06;;;-3.07;100.00
33155;BME280;19511;42.682;23.332;2023-02-10T09:08:58;96918.31;;;-2.81;100.00
33155;BME280;19511;42.682;23.332;2023-02-10T09:11:26;96916.94;;;-2.79;100.00
33155;BME280;19511;42.682;23.332;2023-02-10T09:13:54;96912.66;;;-2.85;100.00
33155;BME280;19511;42.682;23.332;2023-02-10T09:16:20;96913.91;;;-2.72;100.00
33155;BME280;19511;42.682;23.332;2023-02-10T09:18:52;96905.84;;;-2.37;100.00
33155;BME280;19511;42.682;23.332;2023-02-10T09:21:21;96906.00;;;-1.94;98.14
33155;BME280;19511;42.682;23.332;2023-02-10T09:23:54;96897.56;;;-1.92;93.58
33155;BME280;19511;42.682;23.332;2023-02-10T09:26:23;96899.75;;;-1.94;92.74
33155;BME280;19511;42.682;23.332;2023-02-10T09:28:51;96911.03;;;-1.82;91.73
33155;BME280;19511;42.682;23.332;2023-02-10T09:31:18;96899.94;;;-1.86;90.96
33155;BME280;19511;42.682;23.332;2023-02-10T09:33:46;96899.50;;;-1.93;90.58
33155;BME280;19511;42.682;23.332;2023-02-10T09:36:16;96900.91;;;-2.01;91.00
33155;BME280;19511;42.682;23.332;2023-02-10T09:38:42;96880.59;;;-2.03;91.16
33155;BME280;19511;42.682;23.332;2023-02-10T09:44:32;96887.53;;;-1.92;91.45
33155;BME280;19511;42.682;23.332;2023-02-10T09:53:11;96759.00;;;-2.44;90.14
33155;BME280;19511;42.682;23.332;2023-02-10T09:55:39;96878.44;;;-1.77;88.78
33155;BME280;19511;42.682;23.332;2023-02-10T10:01:00;96874.31;;;-1.74;88.84
33155;BME280;19511;42.682;23.332;2023-02-10T10:03:36;96857.19;;;-1.70;89.21
33155;BME280;19511;42.682;23.332;2023-02-10T10:06:17;96844.03;;;-1.57;87.56
33155;BME280;19511;42.682;23.332;2023-02-10T10:14:21;96849.47;;;-1.14;83.47
33155;BME280;19511;42.682;23.332;2023-02-10T10:30:44;96825.16;;;-0.86;79.28
33155;BME280;19511;42.682;23.332;2023-02-10T10:33:28;96820.06;;;-0.74;75.62
33155;BME280;19511;42.682;23.332;2023-02-10T10:35:56;96812.34;;;-0.67;71.68
33155;BME280;19511;42.682;23.332;2023-02-10T10:38:36;96803.19;;;-0.71;72.48
33155;BME280;19511;42.682;23.332;2023-02-10T10:41:07;96813.38;;;-0.62;72.73
33155;BME280;19511;42.682;23.332;2023-02-10T10:43:43;96799.69;;;-0.57;73.14
33155;BME280;19511;42.682;23.332;2023-02-10T10:46:40;96809.84;;;-0.30;71.66
33155;BME280;19511;42.682;23.332;2023-02-10T10:49:08;96802.44;;;-0.43;70.13
33155;BME280;19511;42.682;23.332;2023-02-10T10:51:34;96807.47;;;-0.51;69.11
33155;BME280;19511;42.682;23.332;2023-02-10T10:54:05;96720.19;;;-0.96;70.18
33155;BME280;19511;42.682;23.332;2023-02-10T10:56:45;96799.75;;;-0.29;70.68
33155;BME280;19511;42.682;23.332;2023-02-10T10:59:25;96769.28;;;-0.26;69.38
33155;BME280;19511;42.682;23.332;2023-02-10T11:01:54;96757.09;;;-0.15;70.51
33155;BME280;19511;42.682;23.332;2023-02-10T11:04:23;96777.47;;;0.15;71.12
33155;BME280;19511;42.682;23.332;2023-02-10T11:06:53;96759.00;;;0.26;71.16
33155;BME280;19511;42.682;23.332;2023-02-10T11:09:33;96763.94;;;0.38;67.88
33155;BME280;19511;42.682;23.332;2023-02-10T11:12:20;96779.94;;;0.54;63.90
33155;BME280;19511;42.682;23.332;2023-02-10T11:14:47;96772.28;;;0.42;63.06
33155;BME280;19511;42.682;23.332;2023-02-10T11:17:39;96772.69;;;0.49;61.96
33155;BME280;19511;42.682;23.332;2023-02-10T11:22:37;96741.97;;;0.35;61.63
33155;BME280;19511;42.682;23.332;2023-02-10T11:27:56;96753.88;;;0.75;63.94
33155;BME280;19511;42.682;23.332;2023-02-10T11:33:05;96756.28;;;0.77;60.99
33155;BME280;19511;42.682;23.332;2023-02-10T11:35:32;96739.44;;;0.75;61.44
33155;BME280;19511;42.682;23.332;2023-02-10T11:38:01;96732.53;;;0.91;60.86
33155;BME280;19511;42.682;23.332;2023-02-10T11:40:47;96747.09;;;0.87;60.43
33155;BME280;19511;42.682;23.332;2023-02-10T11:43:14;96693.91;;;0.89;59.85
33155;BME280;19511;42.682;23.332;2023-02-10T11:45:51;96644.22;;;0.70;57.77
33155;BME280;19511;42.682;23.332;2023-02-10T11:48:20;96720.91;;;1.00;57.58
33155;BME280;19511;42.682;23.332;2023-02-10T11:50:47;96730.19;;;0.98;55.56
33155;BME280;19511;42.682;23.332;2023-02-10T11:53:28;96740.97;;;1.04;57.16
33155;BME280;19511;42.682;23.332;2023-02-10T11:55:58;96733.91;;;1.25;58.15
33155;BME280;19511;42.682;23.332;2023-02-10T12:01:31;96725.31;;;1.32;54.71
33155;BME280;19511;42.682;23.332;2023-02-10T12:07:28;96728.19;;;1.36;54.32
33155;BME280;19511;42.682;23.332;2023-02-10T12:10:40;96689.16;;;1.26;55.82
33155;BME280;19511;42.682;23.332;2023-02-10T12:13:22;96718.50;;;1.52;55.49
33155;BME280;19511;42.682;23.332;2023-02-10T12:16:16;96697.38;;;1.58;54.72
33155;BME280;19511;42.682;23.332;2023-02-10T12:21:45;96682.16;;;1.66;53.14
33155;BME280;19511;42.682;23.332;2023-02-10T12:26:49;96589.19;;;1.13;52.87
33155;BME280;19511;42.682;23.332;2023-02-10T12:34:48;96685.78;;;1.92;52.83
33155;BME280;19511;42.682;23.332;2023-02-10T12:53:44;96644.41;;;2.08;51.50
33155;BME280;19511;42.682;23.332;2023-02-10T12:56:42;96660.50;;;2.36;51.24
33155;BME280;19511;42.682;23.332;2023-02-10T13:01:51;96671.44;;;2.53;51.02
33155;BME280;19511;42.682;23.332;2023-02-10T13:06:54;96589.81;;;2.08;50.66
33155;BME280;19511;42.682;23.332;2023-02-10T13:09:39;96676.41;;;2.42;50.58
33155;BME280;19511;42.682;23.332;2023-02-10T13:12:25;96652.31;;;2.36;50.97
33155;BME280;19511;42.682;23.332;2023-02-10T13:15:03;96666.63;;;2.59;50.36
33155;BME280;19511;42.682;23.332;2023-02-10T13:17:44;96675.31;;;2.70;50.99
33155;BME280;19511;42.682;23.332;2023-02-10T13:21:23;96671.75;;;2.78;50.78
33155;BME280;19511;42.682;23.332;2023-02-10T13:28:22;96585.97;;;2.35;50.76
33155;BME280;19511;42.682;23.332;2023-02-10T13:35:57;96566.06;;;2.17;49.87
33155;BME280;19511;42.682;23.332;2023-02-10T13:38:24;96660.53;;;2.71;49.61
33155;BME280;19511;42.682;23.332;2023-02-10T13:40:56;96577.28;;;2.24;49.42
33155;BME280;19511;42.682;23.332;2023-02-10T13:43:45;96666.78;;;2.54;49.12
33155;BME280;19511;42.682;23.332;2023-02-10T13:46:28;96657.47;;;2.55;49.56
33155;BME280;19511;42.682;23.332;2023-02-10T13:48:59;96602.53;;;2.30;50.29
33155;BME280;19511;42.682;23.332;2023-02-10T13:51:33;96660.69;;;2.74;50.58
33155;BME280;19511;42.682;23.332;2023-02-10T13:54:00;96651.84;;;2.77;50.53
33155;BME280;19511;42.682;23.332;2023-02-10T13:56:32;96672.09;;;2.85;50.57
33155;BME280;19511;42.682;23.332;2023-02-10T14:01:42;96666.13;;;2.92;51.82
33155;BME280;19511;42.682;23.332;2023-02-10T14:06:53;96654.41;;;2.91;51.30
33155;BME280;19511;42.682;23.332;2023-02-10T14:11:55;96659.34;;;3.07;50.99
33155;BME280;19511;42.682;23.332;2023-02-10T14:19:39;96667.03;;;3.22;51.31
33155;BME280;19511;42.682;23.332;2023-02-10T14:22:06;96674.63;;;3.25;51.92
33155;BME280;19511;42.682;23.332;2023-02-10T14:24:49;96638.94;;;3.13;51.17
33155;BME280;19511;42.682;23.332;2023-02-10T14:27:16;96642.16;;;3.15;51.28
33155;BME280;19511;42.682;23.332;2023-02-10T14:29:52;96564.41;;;2.69;51.77
33155;BME280;19511;42.682;23.332;2023-02-10T14:32:18;96659.81;;;3.26;52.06
33155;BME280;19511;42.682;23.332;2023-02-10T14:34:58;96658.38;;;3.29;52.13
33155;BME280;19511;42.682;23.332;2023-02-10T14:37:24;96611.75;;;3.08;51.54
33155;BME280;19511;42.682;23.332;2023-02-10T14:42:16;96645.50;;;3.21;51.44
33155;BME280;19511;42.682;23.332;2023-02-10T14:44:45;96643.75;;;3.16;51.69
33155;BME280;19511;42.682;23.332;2023-02-10T14:47:21;96580.34;;;2.40;52.35
33155;BME280;19511;42.682;23.332;2023-02-10T14:49:52;96638.16;;;2.86;52.81
33155;BME280;19511;42.682;23.332;2023-02-10T14:54:49;96643.78;;;2.90;53.87
33155;BME280;19511;42.682;23.332;2023-02-10T14:57:16;96559.28;;;2.41;54.13
33155;BME280;19511;42.682;23.332;2023-02-10T15:00:05;96645.41;;;3.00;55.19
33155;BME280;19511;42.682;23.332;2023-02-10T15:02:34;96658.25;;;2.99;55.10
33155;BME280;19511;42.682;23.332;2023-02-10T15:05:02;96636.38;;;2.90;54.73
33155;BME280;19511;42.682;23.332;2023-02-10T15:07:34;96623.41;;;2.70;55.04
33155;BME280;19511;42.682;23.332;2023-02-10T15:13:04;96642.97;;;2.89;56.04
33155;BME280;19511;42.682;23.332;2023-02-10T15:15:39;96653.09;;;2.98;55.72